CDT,Max TemperatureF,Mean TemperatureF,Min TemperatureF,Max Dew PointF,MeanDew PointF,Min DewpointF,Max Humidity, Mean Humidity, Min Humidity, Max Sea Level PressureIn, Mean Sea Level PressureIn, Min Sea Level PressureIn, Max VisibilityMiles, Mean VisibilityMiles, Min VisibilityMiles, Max Wind SpeedMPH, Mean Wind SpeedMPH, Max Gust SpeedMPH,PrecipitationIn, CloudCover, Events, WindDirDegrees
2013-3-1,30,19,8,16,11,1,73,61,47,30.30,30.25,30.16,10,10,7,15,7,16,0.00,5,Snow,15
2013-3-2,26,13,0,12,4,-8,79,63,36,30.30,30.23,30.14,10,7,0,7,0,,0.00,3,,102
2013-3-3,33,26,19,12,9,7,68,48,35,30.13,30.02,29.94,10,10,10,17,8,22,0.00,5,,122
2013-3-4,30,27,24,21,18,10,80,68,44,29.99,29.91,29.86,10,5,0,23,15,32,0.05,7,Snow,108
2013-3-5,30,24,17,23,20,10,80,73,60,30.25,30.04,29.92,10,5,1,15,7,18,0.16,7,Rain-Snow,22
2013-3-6,26,14,1,18,11,-6,80,68,59,30.37,30.33,30.24,10,8,0,18,8,16,0.00,5,Snow,318
2013-3-7,30,14,-2,18,7,-11,80,67,55,30.34,30.30,30.24,10,8,0,17,4,23,0.00,1,,132
2013-3-8,39,32,24,28,23,16,74,67,56,30.27,30.20,30.05,7,6,5,22,14,28,0.00,0,Rain,140
2013-3-9,39,37,35,34,32,28,87,80,70,30.05,29.80,29.67,7,3,0,22,16,29,0.96,8,Rain-Snow,150
2013-3-10,37,34,32,32,29,27,81,76,65,29.89,29.81,29.71,10,5,1,24,14,33,0.10,8,Rain-Snow,359
2013-3-11,32,26,21,27,20,12,80,72,64,29.83,29.76,29.72,10,9,2,20,15,20,0.01,7,Snow,314
2013-3-12,30,26,21,21,15,10,74,65,59,30.15,29.94,29.82,10,8,2,22,13,29,0.00,6,Snow,288
2013-3-13,28,19,10,16,11,5,79,68,51,30.36,30.29,30.16,10,10,7,16,9,,0.00,0,Snow,259
2013-3-14,39,32,24,27,22,16,80,67,52,30.23,30.10,30.01,10,9,0,17,9,20,0.01,3,Snow,163
2013-3-15,39,34,28,32,29,21,81,76,70,30.01,29.88,29.77,7,3,2,13,4,17,0.05,5,Rain,54
2013-3-16,33,26,19,28,17,9,86,67,51,30.20,30.05,29.84,10,9,3,18,13,20,0.00,5,,327
2013-3-17,33,22,12,23,10,1,68,57,47,30.22,30.07,29.84,10,10,10,25,11,32,0.00,2,,104
2013-3-18,35,25,15,28,17,7,81,69,59,29.84,29.72,29.61,10,3,1,30,22,39,0.05,8,Snow,239
2013-3-19,24,17,10,7,3,0,73,56,43,30.19,30.04,29.84,10,9,1,26,21,36,0.00,2,Snow,282
2013-3-20,21,14,8,5,1,-2,67,55,45,30.21,30.16,30.11,10,10,10,24,18,29,0.00,0,,288
2013-3-21,26,14,3,9,3,-4,78,60,40,30.11,30.06,30.01,10,10,10,6,2,,0.00,0,,274
2013-3-22,33,20,8,19,9,1,79,59,32,30.09,30.05,30.03,10,10,10,5,0,,0.00,0,,267
2013-3-23,37,27,17,21,16,10,74,63,45,30.15,30.10,30.05,10,10,7,8,2,,0.00,0,,289
2013-3-24,35,30,26,23,21,19,80,64,52,30.08,29.99,29.93,10,10,7,17,8,23,0.00,6,,344
2013-3-25,37,32,26,23,18,16,74,58,45,30.22,30.10,29.99,10,10,10,18,12,23,0.00,1,,327
2013-3-26,39,31,23,25,20,16,80,67,52,30.29,30.26,30.22,10,10,10,9,6,,0.00,3,,282
2013-3-27,41,30,19,23,19,12,86,62,33,30.34,30.31,30.29,10,9,5,7,1,,0.00,0,,174
2013-3-28,44,35,26,28,23,18,74,59,42,30.33,30.30,30.26,10,10,10,9,4,,0.00,3,,121
2013-3-29,53,44,35,37,31,27,71,60,46,30.27,30.21,30.07,10,10,7,16,9,20,0.00,2,,140
2013-3-30,51,44,37,43,36,30,87,70,53,30.07,29.92,29.87,10,6,0,21,13,28,0.13,4,Rain-Thunderstorm,224
2013-3-31,42,35,28,34,26,16,87,65,42,30.08,29.90,29.82,10,6,1,29,13,34,0.00,5,,288